createdAt,value
2019-03-24T00:00:26.395Z,98.60
2019-03-24T00:02:55.933Z,98.50
2019-03-24T00:05:25.389Z,98.50
2019-03-24T00:07:56.782Z,98.50
2019-03-24T00:10:26.048Z,98.40
2019-03-24T00:12:55.612Z,98.40
2019-03-24T00:15:26.482Z,98.30
2019-03-24T00:17:56.321Z,98.30
2019-03-24T00:20:25.838Z,98.30
2019-03-24T00:22:55.351Z,98.30
2019-03-24T00:25:24.804Z,98.30
2019-03-24T00:27:54.347Z,98.30
2019-03-24T00:30:23.937Z,98.30
2019-03-24T00:32:53.415Z,98.30
2019-03-24T00:35:22.946Z,98.30
2019-03-24T00:37:52.442Z,98.20
2019-03-24T00:40:21.956Z,98.10
2019-03-24T00:42:51.556Z,98.10
2019-03-24T00:45:21.018Z,98.00
2019-03-24T00:47:50.509Z,98.00
2019-03-24T00:50:20.087Z,97.90
2019-03-24T00:52:49.699Z,97.90
2019-03-24T00:55:19.226Z,97.80
2019-03-24T00:57:48.772Z,97.70
2019-03-24T01:00:21.822Z,97.60
2019-03-24T01:02:51.266Z,97.60
2019-03-24T01:05:20.778Z,97.60
2019-03-24T01:07:50.305Z,97.50
2019-03-24T01:10:19.770Z,97.50
2019-03-24T01:12:49.360Z,97.50
2019-03-24T01:15:18.837Z,97.50
2019-03-24T01:17:48.370Z,97.60
2019-03-24T01:20:17.940Z,97.60
2019-03-24T01:22:47.474Z,97.60
2019-03-24T01:25:17.023Z,97.70
2019-03-24T01:27:46.509Z,97.70
2019-03-24T01:30:16.328Z,97.70
2019-03-24T01:32:45.780Z,97.70
2019-03-24T01:35:15.388Z,97.80
2019-03-24T01:37:44.839Z,97.80
2019-03-24T01:40:14.622Z,97.80
2019-03-24T01:42:44.059Z,97.80
2019-03-24T01:45:13.935Z,97.80
2019-03-24T01:47:43.404Z,97.90
2019-03-24T01:50:13.250Z,97.90
2019-03-24T01:52:42.767Z,97.90
2019-03-24T01:55:12.767Z,97.90
2019-03-24T01:57:42.217Z,97.90
2019-03-24T02:00:11.982Z,98.00
2019-03-24T02:02:41.511Z,97.90
2019-03-24T02:05:11.278Z,97.90
2019-03-24T02:07:40.778Z,97.90
2019-03-24T02:10:11.453Z,97.90
2019-03-24T02:12:41.014Z,97.90
2019-03-24T02:15:11.394Z,97.90
2019-03-24T02:17:40.834Z,98.00
2019-03-24T02:20:12.117Z,98.00
2019-03-24T02:22:41.609Z,98.00
2019-03-24T02:25:12.194Z,98.00
2019-03-24T02:27:41.670Z,98.10
2019-03-24T02:30:12.533Z,98.10
2019-03-24T02:32:41.984Z,98.00
2019-03-24T02:35:11.651Z,98.10
2019-03-24T02:37:41.128Z,98.10
2019-03-24T02:40:11.170Z,98.10
2019-03-24T02:42:40.696Z,98.10
2019-03-24T02:45:10.953Z,98.20
2019-03-24T02:47:40.470Z,98.30
2019-03-24T02:50:12.468Z,98.20
2019-03-24T02:52:41.958Z,98.20
2019-03-24T02:55:12.233Z,98.20
2019-03-24T02:57:41.741Z,98.20
2019-03-24T03:00:13.343Z,98.20
2019-03-24T03:02:42.843Z,98.20
2019-03-24T03:05:12.603Z,98.10
2019-03-24T03:07:42.162Z,98.20
2019-03-24T03:10:14.014Z,98.20
2019-03-24T03:12:43.463Z,98.20
2019-03-24T03:15:13.417Z,98.20
2019-03-24T03:17:42.800Z,98.20
2019-03-24T03:20:12.651Z,98.20
2019-03-24T03:22:42.089Z,98.20
2019-03-24T03:25:12.218Z,98.30
2019-03-24T03:27:41.746Z,98.20
2019-03-24T03:30:11.630Z,98.20
2019-03-24T03:32:41.143Z,98.20
2019-03-24T03:35:11.606Z,98.20
2019-03-24T03:37:41.085Z,98.20
2019-03-24T03:40:11.429Z,98.20
2019-03-24T03:42:41.151Z,98.20
2019-03-24T03:45:12.589Z,98.20
2019-03-24T03:47:42.622Z,98.20
2019-03-24T03:50:12.443Z,98.20
2019-03-24T03:52:41.942Z,98.30
2019-03-24T03:55:11.690Z,98.20
2019-03-24T03:57:41.161Z,98.30
2019-03-24T04:00:11.286Z,98.30
2019-03-24T04:02:40.748Z,98.30
2019-03-24T04:05:10.709Z,98.30
2019-03-24T04:07:40.647Z,98.20
2019-03-24T04:10:10.233Z,98.20
2019-03-24T04:12:39.718Z,98.20
2019-03-24T04:15:09.802Z,98.20
2019-03-24T04:17:39.262Z,98.20
2019-03-24T04:20:08.840Z,98.20
2019-03-24T04:22:38.378Z,98.20
2019-03-24T04:25:08.326Z,98.20
2019-03-24T04:27:37.791Z,98.20
2019-03-24T04:30:08.790Z,98.30
2019-03-24T04:32:38.384Z,98.30
2019-03-24T04:35:11.043Z,98.20
2019-03-24T04:37:40.538Z,98.30
2019-03-24T04:40:10.568Z,98.30
2019-03-24T04:42:40.009Z,98.30
2019-03-24T04:45:09.997Z,98.30
2019-03-24T04:47:39.441Z,98.30
2019-03-24T04:50:09.413Z,98.30
2019-03-24T04:52:38.903Z,98.30
2019-03-24T04:55:09.395Z,98.30
2019-03-24T04:57:38.844Z,98.30
2019-03-24T05:00:10.029Z,98.30
2019-03-24T05:02:39.468Z,98.30
2019-03-24T05:05:09.242Z,98.30
2019-03-24T05:07:40.696Z,98.40
2019-03-24T05:10:26.282Z,98.40
2019-03-24T05:12:56.008Z,98.40
2019-03-24T05:15:28.207Z,98.40
2019-03-24T05:17:57.656Z,98.50
2019-03-24T05:20:27.143Z,98.60
2019-03-24T05:22:56.599Z,98.60
2019-03-24T05:25:26.050Z,98.70
2019-03-24T05:27:55.517Z,98.70
2019-03-24T05:30:24.975Z,98.80
2019-03-24T05:32:54.393Z,98.90
2019-03-24T05:35:23.882Z,98.90
2019-03-24T05:37:53.331Z,98.90
2019-03-24T05:40:22.791Z,98.90
2019-03-24T05:42:52.274Z,98.90
2019-03-24T05:45:21.708Z,98.90
2019-03-24T05:47:51.186Z,99.30
2019-03-24T05:50:20.608Z,98.90
2019-03-24T05:52:50.069Z,99.00
2019-03-24T05:55:19.527Z,99.10
2019-03-24T05:57:49.000Z,99.10
2019-03-24T06:00:18.693Z,99.20
2019-03-24T06:02:48.150Z,99.20
2019-03-24T06:05:17.720Z,99.20
2019-03-24T06:07:47.234Z,99.30
2019-03-24T06:10:16.826Z,99.40
2019-03-24T06:12:46.318Z,99.40
2019-03-24T06:15:15.977Z,99.50
2019-03-24T06:17:48.100Z,99.50
2019-03-24T06:20:16.903Z,99.60
2019-03-24T06:22:46.341Z,99.70
2019-03-24T06:25:15.863Z,99.70
2019-03-24T06:27:45.335Z,99.80
2019-03-24T06:30:15.478Z,99.80
2019-03-24T06:32:44.938Z,99.80
2019-03-24T06:35:14.543Z,99.90
2019-03-24T06:37:44.010Z,99.90
2019-03-24T06:40:14.093Z,99.90
2019-03-24T06:42:43.572Z,99.90
2019-03-24T06:45:13.104Z,99.90
2019-03-24T06:47:42.554Z,99.90
2019-03-24T06:50:12.427Z,99.90
2019-03-24T06:52:41.884Z,99.90
2019-03-24T06:55:11.632Z,99.90
2019-03-24T06:57:41.084Z,99.90
2019-03-24T07:00:13.724Z,99.90
2019-03-24T07:02:43.185Z,99.80
2019-03-24T07:05:13.479Z,99.80
2019-03-24T07:07:43.020Z,99.60
2019-03-24T07:10:13.473Z,99.50
2019-03-24T07:12:45.047Z,99.30
2019-03-24T07:15:14.940Z,99.30
2019-03-24T07:17:44.448Z,99.30
2019-03-24T07:20:14.605Z,99.20
2019-03-24T07:22:44.136Z,99.10
2019-03-24T07:25:13.821Z,98.80
2019-03-24T07:27:43.344Z,98.80
2019-03-24T07:30:13.422Z,98.60
2019-03-24T07:32:42.891Z,98.20
2019-03-24T07:35:12.562Z,97.70
2019-03-24T07:37:42.082Z,97.30
2019-03-24T07:40:11.982Z,97.30
2019-03-24T07:42:41.469Z,96.80
2019-03-24T07:45:11.247Z,96.60
2019-03-24T07:47:40.774Z,96.60
2019-03-24T07:50:10.945Z,96.40
2019-03-24T07:52:40.632Z,95.70
2019-03-24T07:55:10.513Z,95.50
2019-03-24T07:57:39.979Z,95.50
2019-03-24T08:00:12.328Z,95.40
2019-03-24T08:02:51.562Z,95.10
2019-03-24T08:05:21.025Z,95.10
2019-03-24T08:07:50.482Z,94.40
2019-03-24T08:10:19.969Z,94.10
2019-03-24T08:12:49.531Z,93.90
2019-03-24T08:15:19.117Z,93.30
2019-03-24T08:17:48.651Z,92.90
2019-03-24T08:20:18.149Z,92.70
2019-03-24T08:22:47.603Z,92.30
2019-03-24T08:25:19.045Z,92.70
2019-03-24T08:27:48.464Z,93.10
2019-03-24T08:30:22.556Z,93.30
2019-03-24T08:32:52.009Z,93.20
2019-03-24T08:35:21.486Z,92.90
2019-03-24T08:37:50.966Z,93.00
2019-03-24T08:40:20.448Z,93.00
2019-03-24T08:42:49.969Z,93.00
2019-03-24T08:45:32.311Z,92.90
2019-03-24T08:48:01.873Z,93.10
2019-03-24T08:50:31.306Z,92.70
2019-03-24T08:53:00.815Z,91.80
2019-03-24T08:55:30.369Z,91.60
2019-03-24T08:57:59.893Z,91.20
2019-03-24T09:00:30.905Z,91.10
2019-03-24T09:03:00.766Z,91.20
2019-03-24T09:05:30.336Z,91.20
2019-03-24T09:07:59.839Z,91.30
2019-03-24T09:10:29.331Z,91.00
2019-03-24T09:12:58.870Z,90.50
2019-03-24T09:15:28.372Z,90.70
2019-03-24T09:17:57.849Z,90.70
2019-03-24T09:20:27.322Z,90.30
2019-03-24T09:22:56.822Z,90.00
2019-03-24T09:25:26.348Z,89.70
2019-03-24T09:27:55.915Z,88.00
2019-03-24T09:30:30.992Z,86.80
2019-03-24T09:33:00.527Z,87.20
2019-03-24T09:35:30.144Z,86.20
2019-03-24T09:37:59.770Z,85.50
2019-03-24T09:40:31.546Z,85.20
2019-03-24T09:43:02.236Z,85.60
2019-03-24T09:45:32.432Z,83.50
2019-03-24T09:48:02.129Z,84.30
2019-03-24T09:50:33.414Z,84.60
2019-03-24T09:53:02.942Z,85.30
2019-03-24T09:55:32.366Z,84.60
2019-03-24T09:58:01.842Z,84.70
2019-03-24T10:00:31.294Z,85.80
2019-03-24T10:03:00.749Z,86.00
2019-03-24T10:05:30.285Z,80.60
2019-03-24T10:07:59.751Z,83.60
2019-03-24T10:10:29.271Z,80.10
2019-03-24T10:12:58.747Z,78.50
2019-03-24T10:15:28.256Z,77.80
2019-03-24T10:17:57.734Z,76.00
2019-03-24T10:20:27.241Z,75.10
2019-03-24T10:22:56.678Z,76.30
2019-03-24T10:25:26.239Z,77.60
2019-03-24T10:27:55.779Z,76.40
2019-03-24T10:30:25.310Z,74.90
2019-03-24T10:32:55.065Z,73.30
2019-03-24T10:35:24.500Z,73.10
2019-03-24T10:37:54.012Z,74.90
2019-03-24T10:40:28.678Z,74.00
2019-03-24T10:42:54.686Z,74.10
2019-03-24T10:45:24.172Z,71.00
2019-03-24T10:47:53.660Z,69.30
2019-03-24T10:50:23.137Z,67.50
2019-03-24T10:52:52.752Z,70.10
2019-03-24T10:55:22.290Z,68.60
2019-03-24T10:57:51.897Z,66.20
2019-03-24T11:00:39.827Z,64.60
2019-03-24T11:03:09.493Z,62.50
2019-03-24T11:05:39.027Z,62.20
2019-03-24T11:08:08.622Z,61.70
2019-03-24T11:10:38.195Z,59.70
2019-03-24T11:13:07.786Z,57.20
2019-03-24T11:15:37.352Z,56.50
2019-03-24T11:18:06.989Z,58.90
2019-03-24T11:20:36.468Z,60.40
2019-03-24T11:23:06.066Z,58.70
2019-03-24T11:25:35.530Z,57.20
2019-03-24T11:28:05.153Z,57.60
2019-03-24T11:30:34.733Z,59.10
2019-03-24T11:33:04.316Z,60.90
2019-03-24T11:35:33.803Z,60.00
2019-03-24T11:38:03.459Z,58.40
2019-03-24T11:40:33.017Z,58.90
2019-03-24T11:43:02.565Z,57.90
2019-03-24T11:45:32.243Z,58.40
2019-03-24T11:48:01.803Z,58.20
2019-03-24T11:50:31.373Z,54.70
2019-03-24T11:53:00.855Z,55.30
2019-03-24T11:55:30.393Z,55.60
2019-03-24T11:58:05.651Z,55.40
2019-03-24T12:00:39.672Z,56.00
2019-03-24T12:03:09.374Z,56.40
2019-03-24T12:05:39.155Z,57.10
2019-03-24T12:08:08.805Z,56.60
2019-03-24T12:10:38.422Z,56.70
2019-03-24T12:13:07.917Z,56.10
2019-03-24T12:15:37.597Z,56.40
2019-03-24T12:18:07.228Z,56.90
2019-03-24T12:20:36.764Z,57.40
2019-03-24T12:23:06.407Z,56.80
2019-03-24T12:25:36.118Z,57.30
2019-03-24T12:28:05.746Z,55.90
2019-03-24T12:30:35.248Z,56.80
2019-03-24T12:33:04.852Z,56.30
2019-03-24T12:35:34.438Z,56.90
2019-03-24T12:38:04.226Z,56.60
2019-03-24T12:40:33.830Z,57.10
2019-03-24T12:43:03.381Z,58.00
2019-03-24T12:45:33.784Z,57.00
2019-03-24T12:48:03.450Z,57.30
2019-03-24T12:50:32.997Z,58.50
2019-03-24T12:53:02.510Z,59.00
2019-03-24T12:55:32.042Z,59.50
2019-03-24T12:58:01.541Z,58.70
2019-03-24T13:00:37.332Z,58.80
2019-03-24T13:03:07.176Z,58.90
2019-03-24T13:05:36.829Z,60.10
2019-03-24T13:08:16.028Z,60.10
2019-03-24T13:10:46.904Z,60.80
2019-03-24T13:13:16.601Z,61.20
2019-03-24T13:15:46.759Z,61.10
2019-03-24T13:18:16.278Z,61.80
2019-03-24T13:20:45.958Z,60.70
2019-03-24T13:23:15.474Z,61.00
2019-03-24T13:25:44.995Z,62.00
2019-03-24T13:28:14.517Z,61.80
2019-03-24T13:30:44.118Z,59.90
2019-03-24T13:33:13.631Z,58.00
2019-03-24T13:35:43.527Z,58.00
2019-03-24T13:38:13.033Z,57.90
2019-03-24T13:40:42.361Z,57.90
2019-03-24T13:43:11.884Z,56.90
2019-03-24T13:45:41.780Z,57.70
2019-03-24T13:48:11.383Z,56.70
2019-03-24T13:50:41.324Z,54.00
2019-03-24T13:53:10.813Z,54.20
2019-03-24T13:55:40.307Z,55.00
2019-03-24T13:58:12.018Z,55.10
2019-03-24T14:00:40.994Z,56.30
2019-03-24T14:03:10.568Z,56.10
2019-03-24T14:05:40.138Z,55.40
2019-03-24T14:08:09.616Z,56.10
2019-03-24T14:10:39.135Z,53.50
2019-03-24T14:13:08.672Z,51.10
2019-03-24T14:15:38.193Z,53.30
2019-03-24T14:18:07.729Z,54.30
2019-03-24T14:20:43.204Z,55.30
2019-03-24T14:23:08.424Z,55.90
2019-03-24T14:25:37.935Z,55.60
2019-03-24T14:28:07.394Z,56.20
2019-03-24T14:30:48.237Z,55.20
2019-03-24T14:33:17.943Z,55.20
2019-03-24T14:35:47.468Z,55.30
2019-03-24T14:38:17.047Z,55.30
2019-03-24T14:40:46.664Z,55.70
2019-03-24T14:43:16.438Z,55.70
2019-03-24T14:45:46.084Z,55.20
2019-03-24T14:48:15.655Z,55.40
2019-03-24T14:50:53.932Z,55.60
2019-03-24T14:53:16.628Z,55.60
2019-03-24T14:55:46.162Z,56.50
2019-03-24T14:58:15.628Z,56.20
2019-03-24T15:00:45.536Z,56.90
2019-03-24T15:03:15.132Z,56.40
2019-03-24T15:05:44.593Z,56.20
2019-03-24T15:08:14.208Z,56.40
2019-03-24T15:10:43.782Z,56.60
2019-03-24T15:13:13.409Z,56.20
2019-03-24T15:15:42.969Z,56.60
2019-03-24T15:18:12.507Z,57.20
2019-03-24T15:20:42.117Z,57.50
2019-03-24T15:23:11.701Z,56.10
2019-03-24T15:25:41.272Z,54.50
2019-03-24T15:28:10.850Z,54.90
2019-03-24T15:30:40.364Z,54.90
2019-03-24T15:33:09.831Z,54.40
2019-03-24T15:35:39.287Z,54.50
2019-03-24T15:38:09.163Z,55.90
2019-03-24T15:40:38.829Z,56.60
2019-03-24T15:43:08.292Z,54.90
2019-03-24T15:45:37.791Z,54.10
2019-03-24T15:48:07.472Z,55.10
2019-03-24T15:50:36.921Z,55.70
2019-03-24T15:53:06.368Z,55.60
2019-03-24T15:55:35.911Z,56.60
2019-03-24T15:58:05.528Z,56.60
2019-03-24T16:00:44.836Z,57.50
2019-03-24T16:03:14.512Z,58.20
2019-03-24T16:05:44.250Z,58.30
2019-03-24T16:08:13.813Z,58.00
2019-03-24T16:10:43.373Z,58.50
2019-03-24T16:13:12.850Z,57.90
2019-03-24T16:15:42.479Z,56.90
2019-03-24T16:18:12.067Z,57.20
2019-03-24T16:20:41.563Z,54.90
2019-03-24T16:23:11.053Z,54.80
2019-03-24T16:25:40.714Z,54.90
2019-03-24T16:28:10.225Z,55.00
2019-03-24T16:30:39.914Z,55.30
2019-03-24T16:33:13.592Z,55.70
2019-03-24T16:35:45.465Z,55.70
2019-03-24T16:38:14.983Z,56.40
2019-03-24T16:40:44.658Z,57.00
2019-03-24T16:43:14.163Z,57.20
2019-03-24T16:45:43.865Z,57.40
2019-03-24T16:48:13.402Z,58.00
2019-03-24T16:50:42.887Z,58.60
2019-03-24T16:53:12.449Z,59.30
2019-03-24T16:55:42.021Z,59.90
2019-03-24T16:58:11.593Z,60.50
2019-03-24T17:00:41.095Z,61.60
2019-03-24T17:03:10.626Z,62.20
2019-03-24T17:05:40.164Z,62.80
2019-03-24T17:08:09.655Z,63.20
2019-03-24T17:10:39.186Z,62.70
2019-03-24T17:13:08.653Z,64.10
2019-03-24T17:15:38.196Z,62.90
2019-03-24T17:18:07.775Z,60.20
2019-03-24T17:20:37.247Z,59.00
2019-03-24T17:23:06.881Z,59.80
2019-03-24T17:25:36.305Z,60.30
2019-03-24T17:28:05.961Z,60.80
2019-03-24T17:30:35.451Z,61.50
2019-03-24T17:33:05.226Z,62.20
2019-03-24T17:35:34.846Z,62.60
2019-03-24T17:38:04.749Z,63.00
2019-03-24T17:40:38.852Z,63.00
2019-03-24T17:43:06.036Z,62.80
2019-03-24T17:45:35.680Z,62.50
2019-03-24T17:48:05.641Z,62.50
2019-03-24T17:50:35.087Z,62.70
2019-03-24T17:53:06.725Z,63.10
2019-03-24T17:55:35.886Z,63.30
2019-03-24T17:58:05.969Z,63.50
2019-03-24T18:00:42.790Z,63.80
2019-03-24T18:03:12.409Z,64.00
2019-03-24T18:05:42.017Z,64.40
2019-03-24T18:08:11.488Z,64.90
2019-03-24T18:10:41.031Z,65.10
2019-03-24T18:13:10.569Z,65.70
2019-03-24T18:15:40.210Z,66.30
2019-03-24T18:18:09.681Z,67.30
2019-03-24T18:20:39.354Z,68.20
2019-03-24T18:23:08.855Z,68.60
2019-03-24T18:25:38.495Z,69.40
2019-03-24T18:28:08.092Z,70.20
2019-03-24T18:30:37.749Z,70.80
2019-03-24T18:33:07.332Z,71.90
2019-03-24T18:35:36.992Z,72.10
2019-03-24T18:38:06.750Z,73.10
2019-03-24T18:40:36.548Z,73.90
2019-03-24T18:43:06.294Z,74.40
2019-03-24T18:45:35.771Z,74.80
2019-03-24T18:48:06.257Z,75.80
2019-03-24T18:50:35.739Z,76.40
2019-03-24T18:53:05.530Z,76.40
2019-03-24T18:55:35.022Z,77.00
2019-03-24T18:58:04.588Z,77.00
2019-03-24T19:00:34.342Z,77.40
2019-03-24T19:03:03.833Z,78.00
2019-03-24T19:05:35.179Z,78.10
2019-03-24T19:08:04.672Z,78.60
2019-03-24T19:10:34.402Z,79.00
2019-03-24T19:13:03.813Z,79.20
2019-03-24T19:15:33.536Z,79.90
2019-03-24T19:18:03.158Z,80.00
2019-03-24T19:20:32.676Z,80.00
2019-03-24T19:23:02.252Z,79.70
2019-03-24T19:25:31.902Z,79.60
2019-03-24T19:28:01.472Z,80.00
2019-03-24T19:30:37.149Z,80.30
2019-03-24T19:33:07.156Z,80.70
2019-03-24T19:35:36.756Z,80.90
2019-03-24T19:38:06.393Z,81.30
2019-03-24T19:40:36.388Z,82.70
2019-03-24T19:43:06.087Z,82.60
2019-03-24T19:45:35.711Z,82.80
2019-03-24T19:48:05.508Z,83.00
2019-03-24T19:50:35.060Z,83.70
2019-03-24T19:53:04.749Z,84.20
2019-03-24T19:55:34.280Z,84.90
2019-03-24T19:58:03.893Z,84.80
2019-03-24T20:00:33.524Z,85.50
2019-03-24T20:03:03.088Z,85.40
2019-03-24T20:05:32.682Z,85.50
2019-03-24T20:08:02.164Z,86.20
2019-03-24T20:10:31.908Z,85.80
2019-03-24T20:13:01.534Z,85.90
2019-03-24T20:15:31.161Z,85.70
2019-03-24T20:18:00.612Z,86.00
2019-03-24T20:20:30.247Z,85.90
2019-03-24T20:22:59.727Z,86.00
2019-03-24T20:25:29.232Z,86.20
2019-03-24T20:27:58.756Z,86.40
2019-03-24T20:30:28.225Z,86.20
2019-03-24T20:32:57.784Z,86.50
2019-03-24T20:35:27.330Z,87.00
2019-03-24T20:37:56.806Z,86.80
2019-03-24T20:40:26.524Z,87.10
2019-03-24T20:42:56.062Z,87.50
2019-03-24T20:45:25.617Z,87.40
2019-03-24T20:47:55.244Z,87.60
2019-03-24T20:50:24.802Z,87.40
2019-03-24T20:53:03.651Z,87.70
2019-03-24T20:55:25.695Z,87.70
2019-03-24T20:57:55.199Z,87.70
2019-03-24T21:00:38.101Z,87.80
2019-03-24T21:03:08.759Z,87.90
2019-03-24T21:05:38.359Z,88.30
2019-03-24T21:08:07.997Z,88.40
2019-03-24T21:10:37.664Z,88.80
2019-03-24T21:13:07.376Z,88.80
2019-03-24T21:15:36.960Z,88.90
2019-03-24T21:18:06.695Z,89.20
2019-03-24T21:20:36.399Z,89.30
2019-03-24T21:23:06.277Z,89.60
2019-03-24T21:25:35.992Z,89.90
2019-03-24T21:28:05.739Z,90.00
2019-03-24T21:30:38.091Z,90.10
2019-03-24T21:33:07.881Z,90.10
2019-03-24T21:35:37.576Z,90.30
2019-03-24T21:38:07.356Z,90.50
2019-03-24T21:40:36.970Z,90.80
2019-03-24T21:43:06.848Z,90.90
2019-03-24T21:45:36.463Z,91.10
2019-03-24T21:48:06.295Z,91.30
2019-03-24T21:50:36.420Z,91.20
2019-03-24T21:53:06.138Z,91.50
2019-03-24T21:55:35.815Z,91.60
2019-03-24T21:58:05.893Z,91.80
2019-03-24T22:00:37.147Z,91.80
2019-03-24T22:03:07.170Z,91.70
2019-03-24T22:05:37.058Z,91.70
2019-03-24T22:08:06.644Z,91.70
2019-03-24T22:10:36.349Z,92.00
2019-03-24T22:13:06.712Z,91.90
2019-03-24T22:15:36.392Z,91.80
2019-03-24T22:18:06.246Z,92.00
2019-03-24T22:20:36.014Z,91.90
2019-03-24T22:23:05.800Z,91.80
2019-03-24T22:25:35.262Z,92.20
2019-03-24T22:28:05.086Z,92.20
2019-03-24T22:30:34.646Z,92.70
2019-03-24T22:33:04.192Z,93.00
2019-03-24T22:35:33.802Z,92.70
2019-03-24T22:38:03.290Z,92.80
2019-03-24T22:40:32.860Z,92.60
2019-03-24T22:43:02.313Z,93.10
2019-03-24T22:45:31.798Z,92.90
2019-03-24T22:48:01.252Z,92.90
2019-03-24T22:50:30.770Z,92.80
2019-03-24T22:53:00.231Z,93.10
2019-03-24T22:55:29.827Z,93.00
2019-03-24T22:57:59.352Z,93.00
2019-03-24T23:00:33.096Z,93.00
2019-03-24T23:03:02.566Z,93.10
2019-03-24T23:05:32.140Z,93.10
2019-03-24T23:08:01.688Z,93.20
2019-03-24T23:10:31.163Z,93.30
2019-03-24T23:13:00.599Z,93.40
2019-03-24T23:15:31.625Z,93.50
2019-03-24T23:18:01.168Z,93.70
2019-03-24T23:20:30.614Z,93.70
2019-03-24T23:23:00.121Z,93.90
2019-03-24T23:25:29.576Z,93.80
2019-03-24T23:27:59.022Z,94.10
2019-03-24T23:30:28.562Z,94.20
2019-03-24T23:32:58.047Z,94.30
2019-03-24T23:35:27.563Z,94.40
2019-03-24T23:37:57.116Z,94.80
2019-03-24T23:40:26.549Z,94.80
2019-03-24T23:42:56.103Z,94.80
2019-03-24T23:45:25.696Z,94.90
2019-03-24T23:47:55.165Z,94.60
2019-03-24T23:50:24.656Z,94.70
2019-03-24T23:52:54.202Z,95.00
2019-03-24T23:55:23.699Z,95.00
2019-03-24T23:57:53.159Z,95.10
